Time;durP1;ratioP1;P1;durP2;ratioP2;P2;SDS_P1;SDS_P2;PMS_P1;PMS_P2;Temp;Humidity;BMP_temperature;BMP_pressure;BME280_temperature;BME280_humidity;BME280_pressure;Samples;Min_cycle;Max_cycle;Signal;HPM_P1;HPM_P2
2021/10/12 00:00:54;;;;;;;;;5.00;5.00;;;;;;;;5065689;28;10624;-76
2021/10/12 00:03:22;;;;;;;;;4.00;4.00;;;;;;;;5063728;28;10698;-77
2021/10/12 00:05:50;;;;;;;;;4.50;4.50;;;;;;;;5071640;28;10804;-75
2021/10/12 00:08:18;;;;;;;;;6.00;4.00;;;;;;;;5065134;28;10883;-77
2021/10/12 00:10:46;;;;;;;;;4.50;3.00;;;;;;;;5065969;28;10715;-79
2021/10/12 00:13:13;;;;;;;;;6.00;3.50;;;;;;;;5065699;28;10699;-78
2021/10/12 00:15:41;;;;;;;;;6.00;6.00;;;;;;;;5066050;28;11015;-80
2021/10/12 00:18:08;;;;;;;;;4.75;4.00;;;;;;;;5070249;28;11054;-78
2021/10/12 00:20:36;;;;;;;;;5.25;5.25;;;;;;;;5053854;28;10981;-76
2021/10/12 00:23:06;;;;;;;;;2.75;2.75;;;;;;;;5066244;28;11608;-75
2021/10/12 00:25:33;;;;;;;;;6.50;5.00;;;;;;;;5057184;28;10973;-79
2021/10/12 00:28:01;;;;;;;;;5.00;3.00;;;;;;;;5065230;28;10986;-81
2021/10/12 00:30:28;;;;;;;;;3.00;3.00;;;;;;;;5064408;28;11055;-79
2021/10/12 00:32:56;;;;;;;;;2.25;2.00;;;;;;;;5065258;28;10829;-79
2021/10/12 00:35:23;;;;;;;;;4.00;4.00;;;;;;;;5064232;28;10884;-76
2021/10/12 00:37:51;;;;;;;;;2.00;2.00;;;;;;;;5048286;28;11103;-80
2021/10/12 00:40:20;;;;;;;;;2.75;2.75;;;;;;;;5064117;28;10926;-82
2021/10/12 00:42:47;;;;;;;;;3.00;3.00;;;;;;;;5064016;28;11740;-76
2021/10/12 00:45:15;;;;;;;;;8.00;5.00;;;;;;;;5064781;28;11127;-79
2021/10/12 00:47:57;;;;;;;;;3.00;3.00;;;;;;;;5063190;28;10922;-80
2021/10/12 00:50:24;;;;;;;;;5.00;5.00;;;;;;;;5065357;28;11165;-79
2021/10/12 00:52:52;;;;;;;;;5.75;5.75;;;;;;;;5064600;28;11213;-81
2021/10/12 00:55:20;;;;;;;;;3.00;3.00;;;;;;;;5062625;28;11108;-76
2021/10/12 00:57:48;;;;;;;;;5.75;3.00;;;;;;;;5062302;28;11194;-78
2021/10/12 01:00:16;;;;;;;;;6.25;3.00;;;;;;;;5060115;28;11137;-81
2021/10/12 01:02:43;;;;;;;;;7.00;5.75;;;;;;;;5063272;28;11104;-76
2021/10/12 01:05:11;;;;;;;;;6.75;5.00;;;;;;;;5063348;28;11137;-77
2021/10/12 01:07:38;;;;;;;;;3.00;3.00;;;;;;;;5064664;28;11202;-76
2021/10/12 01:10:08;;;;;;;;;4.50;4.50;;;;;;;;5072061;28;11060;-77
2021/10/12 01:12:37;;;;;;;;;6.00;6.00;;;;;;;;5064026;28;11132;-77
2021/10/12 01:15:05;;;;;;;;;6.50;5.00;;;;;;;;5064355;28;11122;-79
2021/10/12 01:17:33;;;;;;;;;6.25;5.50;;;;;;;;5063043;28;10979;-75
2021/10/12 01:20:00;;;;;;;;;4.50;4.50;;;;;;;;5064450;28;11214;-76
2021/10/12 01:22:29;;;;;;;;;6.50;5.00;;;;;;;;5063906;28;10972;-75
2021/10/12 01:24:56;;;;;;;;;6.50;5.75;;;;;;;;5063374;28;11062;-75
2021/10/12 01:27:24;;;;;;;;;5.50;5.50;;;;;;;;5062822;28;11128;-76
2021/10/12 01:29:52;;;;;;;;;6.75;5.00;;;;;;;;5063151;28;11047;-79
2021/10/12 01:32:20;;;;;;;;;3.50;3.50;;;;;;;;5062870;28;11080;-75
2021/10/12 01:34:47;;;;;;;;;5.50;5.50;;;;;;;;5062076;28;11047;-75
2021/10/12 01:37:15;;;;;;;;;6.00;5.00;;;;;;;;5064702;28;11878;-77
2021/10/12 01:39:43;;;;;;;;;5.00;5.00;;;;;;;;5063191;28;12033;-80
2021/10/12 01:42:11;;;;;;;;;5.25;5.25;;;;;;;;5046486;28;11001;-80
2021/10/12 01:44:39;;;;;;;;;5.25;5.25;;;;;;;;5063922;28;11850;-80
2021/10/12 01:47:06;;;;;;;;;6.50;5.00;;;;;;;;5063701;28;11094;-77
2021/10/12 01:49:33;;;;;;;;;6.00;6.00;;;;;;;;5069669;28;12255;-75
2021/10/12 01:52:01;;;;;;;;;5.00;3.50;;;;;;;;5067186;28;11056;-77
2021/10/12 01:54:28;;;;;;;;;5.25;4.50;;;;;;;;5065776;28;11082;-77
2021/10/12 01:56:57;;;;;;;;;5.50;5.50;;;;;;;;5050102;28;11930;-77
2021/10/12 01:59:24;;;;;;;;;7.00;5.00;;;;;;;;5062968;28;11547;-76
2021/10/12 02:01:52;;;;;;;;;9.00;6.00;;;;;;;;5063742;28;11247;-81
2021/10/12 02:04:19;;;;;;;;;5.75;5.75;;;;;;;;5062500;28;12071;-77
2021/10/12 02:06:46;;;;;;;;;6.00;5.50;;;;;;;;5045605;28;11327;-76
2021/10/12 02:09:14;;;;;;;;;4.50;4.50;;;;;;;;5048898;28;11456;-77
2021/10/12 02:11:41;;;;;;;;;7.00;6.00;;;;;;;;5063614;28;11458;-74
2021/10/12 02:14:10;;;;;;;;;5.25;5.25;;;;;;;;5061905;28;12047;-74
2021/10/12 02:16:38;;;;;;;;;7.25;5.00;;;;;;;;5063362;28;11448;-74
2021/10/12 02:19:05;;;;;;;;;5.00;5.00;;;;;;;;5061320;28;11454;-77
2021/10/12 02:21:32;;;;;;;;;6.50;6.50;;;;;;;;5076069;28;11356;-75
2021/10/12 02:24:00;;;;;;;;;8.25;6.50;;;;;;;;5051509;28;11183;-79
2021/10/12 02:26:27;;;;;;;;;5.25;5.25;;;;;;;;5043753;28;11129;-75
2021/10/12 02:28:55;;;;;;;;;3.50;3.50;;;;;;;;5063206;28;11139;-75
2021/10/12 02:31:24;;;;;;;;;7.50;5.00;;;;;;;;5061971;28;11527;-74
2021/10/12 02:33:52;;;;;;;;;6.00;4.00;;;;;;;;5063997;28;11134;-75
2021/10/12 02:36:19;;;;;;;;;5.00;5.00;;;;;;;;5061417;28;11112;-74
2021/10/12 02:38:46;;;;;;;;;5.75;5.75;;;;;;;;5063673;28;11225;-76
2021/10/12 02:41:14;;;;;;;;;8.75;6.00;;;;;;;;5063789;28;11421;-75
2021/10/12 02:43:41;;;;;;;;;6.00;5.75;;;;;;;;5062282;28;11443;-77
2021/10/12 02:46:09;;;;;;;;;5.00;5.00;;;;;;;;5063127;28;11447;-75
2021/10/12 02:48:37;;;;;;;;;8.00;5.50;;;;;;;;5062273;28;11583;-75
2021/10/12 02:51:05;;;;;;;;;7.00;7.00;;;;;;;;5062920;28;11433;-75
2021/10/12 02:53:32;;;;;;;;;6.50;6.50;;;;;;;;5061588;28;11423;-76
2021/10/12 02:55:59;;;;;;;;;7.00;7.00;;;;;;;;5063192;28;11570;-74
2021/10/12 02:58:26;;;;;;;;;7.50;6.00;;;;;;;;5062328;28;11406;-76
2021/10/12 03:00:54;;;;;;;;;6.75;6.50;;;;;;;;5061408;28;11394;-80
2021/10/12 03:03:21;;;;;;;;;8.00;6.00;;;;;;;;5063315;28;11442;-76
2021/10/12 03:05:50;;;;;;;;;9.25;7.00;;;;;;;;5060449;28;11470;-74
2021/10/12 03:08:17;;;;;;;;;6.75;6.75;;;;;;;;5063534;28;11467;-75
2021/10/12 03:10:44;;;;;;;;;7.00;6.00;;;;;;;;5061934;28;12897;-74
2021/10/12 03:13:11;;;;;;;;;8.00;6.00;;;;;;;;5063204;28;11442;-75
2021/10/12 03:15:39;;;;;;;;;5.00;5.00;;;;;;;;5061977;28;11528;-76
2021/10/12 03:18:06;;;;;;;;;4.00;4.00;;;;;;;;5042766;28;11438;-78
2021/10/12 03:20:34;;;;;;;;;8.50;6.00;;;;;;;;5062875;28;11514;-79
2021/10/12 03:23:03;;;;;;;;;6.25;6.25;;;;;;;;5062461;28;11502;-75
2021/10/12 03:25:30;;;;;;;;;5.00;5.00;;;;;;;;5075153;28;11440;-80
2021/10/12 03:27:57;;;;;;;;;7.25;7.25;;;;;;;;5052128;28;11431;-75
2021/10/12 03:30:25;;;;;;;;;5.00;5.00;;;;;;;;5065978;28;11332;-76
2021/10/12 03:32:52;;;;;;;;;1.50;1.00;;;;;;;;5064642;28;11465;-77
2021/10/12 03:35:25;;;;;;;;;9.25;7.00;;;;;;;;5047821;28;11489;-79
2021/10/12 03:37:53;;;;;;;;;7.00;7.00;;;;;;;;5066042;28;11431;-75
2021/10/12 03:40:22;;;;;;;;;6.00;5.00;;;;;;;;5068661;28;11445;-77
2021/10/12 03:42:50;;;;;;;;;6.00;6.00;;;;;;;;5066176;28;11476;-75
2021/10/12 03:45:17;;;;;;;;;6.50;6.50;;;;;;;;5065291;28;11473;-77
2021/10/12 03:47:45;;;;;;;;;7.75;7.00;;;;;;;;5065843;28;11448;-77
2021/10/12 03:50:12;;;;;;;;;10.00;9.00;;;;;;;;5064822;28;11461;-79
2021/10/12 03:52:39;;;;;;;;;7.50;7.50;;;;;;;;5065223;28;11454;-74
2021/10/12 03:55:08;;;;;;;;;9.75;7.50;;;;;;;;5065373;28;11464;-75
2021/10/12 03:57:37;;;;;;;;;7.50;7.50;;;;;;;;5065012;28;11486;-75
2021/10/12 04:00:05;;;;;;;;;6.00;6.00;;;;;;;;5069538;28;11559;-75
2021/10/12 04:02:32;;;;;;;;;12.50;9.50;;;;;;;;5061525;28;11565;-80
2021/10/12 04:05:00;;;;;;;;;8.50;8.50;;;;;;;;5066091;28;11459;-74
2021/10/12 04:07:28;;;;;;;;;8.50;8.50;;;;;;;;5055049;28;11441;-75
2021/10/12 04:09:55;;;;;;;;;11.50;9.50;;;;;;;;5066373;28;11444;-75
2021/10/12 04:12:22;;;;;;;;;10.75;9.00;;;;;;;;5052724;28;11459;-76
2021/10/12 04:14:51;;;;;;;;;8.50;7.25;;;;;;;;5065899;28;11472;-77
2021/10/12 04:17:18;;;;;;;;;7.00;7.00;;;;;;;;5060721;28;11505;-76
2021/10/12 04:19:45;;;;;;;;;10.00;6.00;;;;;;;;5064272;28;11450;-74
2021/10/12 04:22:13;;;;;;;;;6.50;6.50;;;;;;;;5065836;28;11460;-75
2021/10/12 04:24:40;;;;;;;;;3.00;3.00;;;;;;;;5064635;28;11456;-75
2021/10/12 04:27:07;;;;;;;;;5.00;5.00;;;;;;;;5063633;28;11429;-74
2021/10/12 04:29:35;;;;;;;;;10.50;8.50;;;;;;;;5064531;28;11563;-77
2021/10/12 04:32:04;;;;;;;;;8.00;7.50;;;;;;;;5061546;28;11432;-75
2021/10/12 04:34:32;;;;;;;;;11.00;9.75;;;;;;;;5045180;28;11484;-74
2021/10/12 04:36:59;;;;;;;;;8.50;8.50;;;;;;;;5044404;28;11539;-76
2021/10/12 04:39:28;;;;;;;;;7.00;7.00;;;;;;;;5049629;28;11545;-78
2021/10/12 04:41:57;;;;;;;;;6.00;6.00;;;;;;;;5043749;28;11676;-78
2021/10/12 04:44:24;;;;;;;;;6.75;6.75;;;;;;;;5048274;28;11507;-77
2021/10/12 04:46:52;;;;;;;;;11.75;9.25;;;;;;;;5052779;28;11577;-76
2021/10/12 04:49:21;;;;;;;;;9.50;7.00;;;;;;;;5056014;28;11504;-77
2021/10/12 04:51:48;;;;;;;;;9.00;8.50;;;;;;;;5053204;28;11503;-79
2021/10/12 04:54:15;;;;;;;;;8.00;7.00;;;;;;;;5047465;28;11525;-81
2021/10/12 04:56:43;;;;;;;;;8.75;8.00;;;;;;;;5058406;28;11468;-77
2021/10/12 04:59:10;;;;;;;;;8.00;8.00;;;;;;;;5034533;28;11536;-75
2021/10/12 05:01:38;;;;;;;;;6.75;6.00;;;;;;;;5052813;28;11410;-77
2021/10/12 05:04:06;;;;;;;;;9.25;7.00;;;;;;;;5062976;28;11558;-75
2021/10/12 05:06:35;;;;;;;;;6.25;6.25;;;;;;;;5063481;28;11439;-75
2021/10/12 05:09:02;;;;;;;;;13.75;9.00;;;;;;;;5063333;28;11581;-76
2021/10/12 05:11:29;;;;;;;;;6.25;6.25;;;;;;;;5063812;28;12337;-79
2021/10/12 05:13:57;;;;;;;;;6.50;6.50;;;;;;;;5065125;28;11446;-78
2021/10/12 05:16:27;;;;;;;;;4.00;4.00;;;;;;;;5063174;28;11475;-78
2021/10/12 05:18:58;;;;;;;;;7.25;6.00;;;;;;;;5063324;28;11461;-77
2021/10/12 05:21:25;;;;;;;;;5.50;5.50;;;;;;;;5065533;28;11490;-76
2021/10/12 05:23:54;;;;;;;;;7.00;7.00;;;;;;;;5063912;28;11501;-77
2021/10/12 05:26:22;;;;;;;;;5.00;5.00;;;;;;;;5064130;28;11480;-78
2021/10/12 05:28:51;;;;;;;;;6.50;6.50;;;;;;;;5062685;28;11560;-77
2021/10/12 05:31:19;;;;;;;;;7.00;7.00;;;;;;;;5064539;28;11371;-76
2021/10/12 05:33:47;;;;;;;;;4.50;4.50;;;;;;;;5060191;28;11484;-76
2021/10/12 05:36:14;;;;;;;;;6.25;6.25;;;;;;;;5063795;28;12216;-76
2021/10/12 05:38:42;;;;;;;;;9.75;9.75;;;;;;;;5063185;28;11461;-77
2021/10/12 05:41:11;;;;;;;;;13.25;13.25;;;;;;;;5063482;28;11491;-73
2021/10/12 05:43:40;;;;;;;;;9.25;9.25;;;;;;;;5062830;28;11509;-74
2021/10/12 05:46:08;;;;;;;;;12.50;10.00;;;;;;;;5059543;28;11975;-73
2021/10/12 05:48:35;;;;;;;;;9.75;9.75;;;;;;;;5061870;28;11461;-73
2021/10/12 05:51:03;;;;;;;;;6.50;6.50;;;;;;;;5062534;28;11470;-73
2021/10/12 05:53:32;;;;;;;;;10.00;7.00;;;;;;;;5062420;28;12994;-72
2021/10/12 05:56:05;;;;;;;;;10.00;7.00;;;;;;;;5062046;28;11555;-72
2021/10/12 05:58:41;;;;;;;;;10.00;9.00;;;;;;;;5061734;28;11569;-74
2021/10/12 06:01:09;;;;;;;;;9.50;7.50;;;;;;;;5062060;28;11433;-72
2021/10/12 06:03:36;;;;;;;;;14.00;11.00;;;;;;;;5062922;28;11519;-72
2021/10/12 06:06:04;;;;;;;;;8.50;8.50;;;;;;;;5063677;28;11519;-72
2021/10/12 06:08:33;;;;;;;;;12.25;9.25;;;;;;;;5062073;28;11475;-73
2021/10/12 06:11:01;;;;;;;;;9.75;9.75;;;;;;;;5063688;28;11508;-73
2021/10/12 06:13:29;;;;;;;;;15.00;13.75;;;;;;;;5062743;28;11598;-72
2021/10/12 06:15:58;;;;;;;;;14.00;9.75;;;;;;;;5061102;28;11871;-71
2021/10/12 06:18:26;;;;;;;;;7.50;7.50;;;;;;;;5062390;28;11448;-70
2021/10/12 06:20:53;;;;;;;;;8.50;8.50;;;;;;;;5063452;28;12224;-71
2021/10/12 06:23:22;;;;;;;;;14.25;11.75;;;;;;;;5062868;28;11545;-71
2021/10/12 06:25:51;;;;;;;;;11.50;9.25;;;;;;;;5056873;28;11512;-71
2021/10/12 06:28:19;;;;;;;;;9.50;9.50;;;;;;;;5054944;28;14071;-71
2021/10/12 06:30:46;;;;;;;;;7.50;7.00;;;;;;;;5060835;28;11529;-71
2021/10/12 06:33:16;;;;;;;;;12.00;12.00;;;;;;;;5060522;28;11462;-72
2021/10/12 06:35:44;;;;;;;;;7.00;7.00;;;;;;;;5060991;28;11488;-71
2021/10/12 06:38:11;;;;;;;;;12.25;9.50;;;;;;;;5062309;28;11491;-72
2021/10/12 06:40:39;;;;;;;;;6.00;6.00;;;;;;;;5063175;28;11472;-71
2021/10/12 06:43:06;;;;;;;;;11.00;11.00;;;;;;;;5062404;28;11443;-72
2021/10/12 06:45:34;;;;;;;;;13.75;10.25;;;;;;;;5062980;28;11518;-72
2021/10/12 06:48:01;;;;;;;;;18.75;12.00;;;;;;;;5062679;28;11522;-71
2021/10/12 06:50:30;;;;;;;;;7.00;7.00;;;;;;;;5062992;28;11522;-73
2021/10/12 06:52:57;;;;;;;;;11.75;11.50;;;;;;;;5061921;28;12168;-71
2021/10/12 06:55:26;;;;;;;;;12.75;10.25;;;;;;;;5054605;28;11500;-70
2021/10/12 06:57:53;;;;;;;;;13.75;13.25;;;;;;;;5056779;28;11530;-72
2021/10/12 07:00:20;;;;;;;;;10.50;10.00;;;;;;;;5062677;28;11503;-73
2021/10/12 07:02:48;;;;;;;;;15.00;11.50;;;;;;;;5066234;28;11485;-71
2021/10/12 07:05:17;;;;;;;;;13.50;11.00;;;;;;;;5066524;28;11586;-71
2021/10/12 07:07:46;;;;;;;;;13.00;11.75;;;;;;;;5067074;28;11537;-70
2021/10/12 07:10:15;;;;;;;;;13.00;13.00;;;;;;;;5057010;28;11540;-71
2021/10/12 07:12:43;;;;;;;;;11.50;11.50;;;;;;;;5067410;28;11498;-71
2021/10/12 07:15:11;;;;;;;;;11.50;11.50;;;;;;;;5067489;28;11472;-70
2021/10/12 07:17:39;;;;;;;;;15.25;14.25;;;;;;;;5066255;28;11567;-70
2021/10/12 07:20:08;;;;;;;;;10.50;10.50;;;;;;;;5067457;28;11501;-71
2021/10/12 07:22:35;;;;;;;;;14.00;11.50;;;;;;;;5066445;28;11520;-71
2021/10/12 07:25:06;;;;;;;;;12.75;12.50;;;;;;;;5067176;28;11513;-71
2021/10/12 07:27:34;;;;;;;;;14.50;13.75;;;;;;;;5065992;28;11500;-70
2021/10/12 07:30:02;;;;;;;;;10.50;10.50;;;;;;;;5067145;28;11508;-70
2021/10/12 07:32:29;;;;;;;;;14.50;10.50;;;;;;;;5066276;28;11419;-71
2021/10/12 07:34:56;;;;;;;;;10.75;10.00;;;;;;;;5066490;28;11217;-70
2021/10/12 07:37:24;;;;;;;;;16.50;12.75;;;;;;;;5066701;28;11482;-70
2021/10/12 07:39:51;;;;;;;;;12.50;12.50;;;;;;;;5065667;28;12135;-71
2021/10/12 07:42:20;;;;;;;;;15.00;15.00;;;;;;;;5066103;28;11295;-71
2021/10/12 07:44:47;;;;;;;;;17.25;15.50;;;;;;;;5065939;28;11992;-72
2021/10/12 07:47:15;;;;;;;;;16.00;12.00;;;;;;;;5066636;28;11897;-71
2021/10/12 07:49:42;;;;;;;;;16.50;13.50;;;;;;;;5066957;28;11214;-71
2021/10/12 07:52:10;;;;;;;;;14.00;12.75;;;;;;;;5066748;28;11170;-71
2021/10/12 07:54:45;;;;;;;;;16.25;14.50;;;;;;;;5066772;28;11036;-71
2021/10/12 07:57:13;;;;;;;;;17.75;15.00;;;;;;;;5065268;28;11056;-71
2021/10/12 07:59:42;;;;;;;;;12.75;12.75;;;;;;;;5066151;28;11243;-72
2021/10/12 08:02:12;;;;;;;;;16.50;12.75;;;;;;;;5064725;28;11129;-71
2021/10/12 08:04:40;;;;;;;;;12.00;11.50;;;;;;;;5066336;28;11608;-71
2021/10/12 08:07:07;;;;;;;;;12.50;12.50;;;;;;;;5066011;28;10948;-72
2021/10/12 08:09:35;;;;;;;;;13.50;12.00;;;;;;;;5065713;28;10821;-71
2021/10/12 08:12:03;;;;;;;;;14.75;14.75;;;;;;;;5066005;28;10945;-71
2021/10/12 08:14:32;;;;;;;;;16.00;13.00;;;;;;;;5066036;28;10831;-72
2021/10/12 08:17:01;;;;;;;;;15.00;15.00;;;;;;;;5065869;28;10864;-71
2021/10/12 08:19:29;;;;;;;;;15.75;15.75;;;;;;;;5065181;28;10831;-71
2021/10/12 08:21:56;;;;;;;;;20.75;16.50;;;;;;;;5066413;28;10779;-71
2021/10/12 08:24:23;;;;;;;;;18.50;15.50;;;;;;;;5065971;28;10870;-71
2021/10/12 08:26:51;;;;;;;;;16.25;16.25;;;;;;;;5065279;28;10937;-71
2021/10/12 08:29:18;;;;;;;;;15.50;13.00;;;;;;;;5066175;28;10785;-71
2021/10/12 08:31:46;;;;;;;;;16.50;13.75;;;;;;;;5063203;28;10636;-72
2021/10/12 08:34:16;;;;;;;;;20.25;17.75;;;;;;;;5066021;28;10543;-71
2021/10/12 08:36:43;;;;;;;;;21.75;21.75;;;;;;;;5064606;28;10590;-71
2021/10/12 08:39:11;;;;;;;;;16.75;13.75;;;;;;;;5065948;28;10538;-71
2021/10/12 08:41:43;;;;;;;;;18.25;16.00;;;;;;;;5065931;28;11217;-71
2021/10/12 08:44:11;;;;;;;;;15.00;13.00;;;;;;;;5065415;28;10329;-71
2021/10/12 08:46:39;;;;;;;;;14.50;14.50;;;;;;;;5065574;28;10338;-72
2021/10/12 08:49:06;;;;;;;;;16.25;15.25;;;;;;;;5064996;28;10093;-71
2021/10/12 08:51:35;;;;;;;;;14.00;14.00;;;;;;;;5065516;28;9980;-71
2021/10/12 08:54:02;;;;;;;;;14.75;13.25;;;;;;;;5064836;28;10593;-72
2021/10/12 08:56:29;;;;;;;;;17.50;17.50;;;;;;;;5065876;28;10146;-71
2021/10/12 08:58:57;;;;;;;;;13.75;12.25;;;;;;;;5064687;28;9871;-72
2021/10/12 09:01:24;;;;;;;;;15.50;12.75;;;;;;;;5061387;28;9735;-71
2021/10/12 09:03:59;;;;;;;;;16.75;16.00;;;;;;;;5061116;28;9849;-72
2021/10/12 09:06:31;;;;;;;;;16.75;15.00;;;;;;;;5064276;28;9767;-71
2021/10/12 09:09:02;;;;;;;;;14.75;14.75;;;;;;;;5062276;28;10640;-71
2021/10/12 09:11:30;;;;;;;;;16.00;14.75;;;;;;;;5064520;28;10492;-72
2021/10/12 09:14:05;;;;;;;;;13.50;13.50;;;;;;;;5065519;28;9718;-72
2021/10/12 09:16:36;;;;;;;;;17.33;17.33;;;;;;;;5065005;28;9737;-71
2021/10/12 09:19:05;;;;;;;;;15.00;15.00;;;;;;;;5064514;28;9347;-72
2021/10/12 09:21:35;;;;;;;;;15.33;14.67;;;;;;;;5065013;28;9339;-71
2021/10/12 09:24:09;;;;;;;;;15.67;15.67;;;;;;;;5062081;28;9198;-71
2021/10/12 09:26:39;;;;;;;;;15.00;15.00;;;;;;;;5064849;28;9256;-71
2021/10/12 09:29:11;;;;;;;;;16.67;15.67;;;;;;;;5063569;28;9261;-71
2021/10/12 09:31:40;;;;;;;;;14.00;11.33;;;;;;;;5062701;28;10021;-71
2021/10/12 09:34:09;;;;;;;;;22.33;16.33;;;;;;;;5065013;28;9288;-71
2021/10/12 09:36:38;;;;;;;;;12.33;12.33;;;;;;;;5063904;28;9203;-72
2021/10/12 09:39:08;;;;;;;;;15.33;15.33;;;;;;;;5065055;28;9164;-71
2021/10/12 09:41:36;;;;;;;;;15.00;13.33;;;;;;;;5063843;28;9273;-71
2021/10/12 09:44:11;;;;;;;;;13.00;13.00;;;;;;;;5064785;28;9129;-71
2021/10/12 09:46:40;;;;;;;;;12.00;11.00;;;;;;;;5064004;28;9200;-71
2021/10/12 09:49:15;;;;;;;;;13.00;11.67;;;;;;;;5064580;28;9611;-71
2021/10/12 09:52:00;;;;;;;;;8.67;8.67;;;;;;;;5065231;28;9083;-72
2021/10/12 09:54:31;;;;;;;;;6.67;6.67;;;;;;;;5064089;28;9816;-72
2021/10/12 09:57:01;;;;;;;;;11.25;8.50;;;;;;;;5064369;28;8961;-71
2021/10/12 09:59:28;;;;;;;;;9.75;9.75;;;;;;;;5061687;28;8874;-72
2021/10/12 10:01:57;;;;;;;;;8.00;8.00;;;;;;;;5062661;28;8838;-72
2021/10/12 10:04:26;;;;;;;;;8.00;8.00;;;;;;;;5064017;28;8843;-70
2021/10/12 10:06:59;;;;;;;;;8.00;5.50;;;;;;;;5063208;28;8870;-71
2021/10/12 10:09:28;;;;;;;;;7.75;5.75;;;;;;;;5064532;28;8866;-71
2021/10/12 10:11:56;;;;;;;;;3.75;3.50;;;;;;;;5063879;28;10084;-70
2021/10/12 10:14:23;;;;;;;;;4.00;4.00;;;;;;;;5057407;28;8877;-71
2021/10/12 10:16:54;;;;;;;;;5.00;5.00;;;;;;;;5060961;28;8866;-71
2021/10/12 10:19:23;;;;;;;;;4.00;4.00;;;;;;;;5063333;28;8981;-70
2021/10/12 10:21:51;;;;;;;;;4.50;3.00;;;;;;;;5064149;28;8965;-70
2021/10/12 10:24:38;;;;;;;;;3.25;3.25;;;;;;;;5061836;28;8904;-71
2021/10/12 10:27:08;;;;;;;;;4.50;4.50;;;;;;;;5056606;28;8878;-73
2021/10/12 10:29:37;;;;;;;;;2.75;2.75;;;;;;;;5061077;28;8914;-73
2021/10/12 10:32:14;;;;;;;;;4.00;3.75;;;;;;;;5071915;28;8876;-72
2021/10/12 10:34:42;;;;;;;;;6.25;3.50;;;;;;;;5062464;28;8854;-71
2021/10/12 10:37:30;;;;;;;;;5.00;3.75;;;;;;;;5062285;28;8874;-72
2021/10/12 10:40:03;;;;;;;;;6.00;4.00;;;;;;;;5065765;28;8886;-71
2021/10/12 10:42:51;;;;;;;;;3.25;3.25;;;;;;;;5064570;28;8866;-72
2021/10/12 10:45:19;;;;;;;;;3.25;2.75;;;;;;;;5063143;28;8897;-71
2021/10/12 10:47:50;;;;;;;;;3.50;2.00;;;;;;;;5062299;28;10157;-72
2021/10/12 10:50:26;;;;;;;;;0.00;0.00;;;;;;;;5062480;28;8882;-72
2021/10/12 10:52:55;;;;;;;;;4.00;2.75;;;;;;;;5063233;28;8880;-72
2021/10/12 10:55:23;;;;;;;;;3.00;3.00;;;;;;;;5062019;28;8874;-71
2021/10/12 10:58:09;;;;;;;;;2.00;2.00;;;;;;;;5063519;28;9711;-72
2021/10/12 11:00:41;;;;;;;;;2.50;2.50;;;;;;;;5062280;28;8799;-71
2021/10/12 11:03:10;;;;;;;;;2.25;2.25;;;;;;;;5061651;28;8862;-71
2021/10/12 11:05:44;;;;;;;;;4.00;2.75;;;;;;;;5062419;28;8866;-71
2021/10/12 11:08:17;;;;;;;;;5.50;2.00;;;;;;;;5063374;28;9443;-70
2021/10/12 11:10:46;;;;;;;;;1.75;1.75;;;;;;;;5063112;28;9456;-70
2021/10/12 11:13:30;;;;;;;;;3.50;2.00;;;;;;;;5058184;28;8862;-71
2021/10/12 11:15:58;;;;;;;;;2.50;2.50;;;;;;;;5056544;28;8863;-72
2021/10/12 11:18:26;;;;;;;;;3.00;3.00;;;;;;;;5061789;28;8908;-73
2021/10/12 11:20:57;;;;;;;;;2.00;2.00;;;;;;;;5061268;28;8905;-71
2021/10/12 11:23:26;;;;;;;;;1.50;1.50;;;;;;;;5057983;28;9047;-71
2021/10/12 11:26:02;;;;;;;;;2.00;2.00;;;;;;;;5060393;28;8898;-71
2021/10/12 11:28:32;;;;;;;;;2.00;2.00;;;;;;;;5060516;28;8858;-71
2021/10/12 11:31:05;;;;;;;;;2.00;2.00;;;;;;;;5061200;28;9669;-71
2021/10/12 11:33:38;;;;;;;;;1.50;1.50;;;;;;;;5056140;28;8871;-72
2021/10/12 11:36:07;;;;;;;;;1.75;1.75;;;;;;;;5060312;28;8886;-71
2021/10/12 11:38:36;;;;;;;;;2.50;1.75;;;;;;;;5058658;28;8864;-72
2021/10/12 11:41:23;;;;;;;;;1.00;1.00;;;;;;;;5060418;28;8873;-71
2021/10/12 11:43:54;;;;;;;;;3.50;2.00;;;;;;;;5059270;28;8877;-72
2021/10/12 11:46:24;;;;;;;;;2.25;2.00;;;;;;;;5069445;28;8858;-73
2021/10/12 11:48:51;;;;;;;;;2.75;2.00;;;;;;;;5068420;28;8869;-71
2021/10/12 11:51:24;;;;;;;;;2.00;2.00;;;;;;;;5068756;28;9593;-73
2021/10/12 11:53:53;;;;;;;;;2.00;2.00;;;;;;;;5068247;28;8863;-71
2021/10/12 11:56:21;;;;;;;;;1.75;1.50;;;;;;;;5065712;28;8851;-73
2021/10/12 11:58:49;;;;;;;;;1.00;1.00;;;;;;;;5066389;28;8963;-73
2021/10/12 12:01:28;;;;;;;;;2.50;2.00;;;;;;;;5065913;28;8799;-73
2021/10/12 12:03:55;;;;;;;;;3.00;1.25;;;;;;;;5065898;28;8866;-72
2021/10/12 12:06:24;;;;;;;;;2.00;2.00;;;;;;;;5066697;28;8882;-73
2021/10/12 12:08:53;;;;;;;;;1.00;1.00;;;;;;;;5065452;28;8898;-72
2021/10/12 12:11:25;;;;;;;;;1.75;1.50;;;;;;;;5067031;28;8885;-72
2021/10/12 12:13:53;;;;;;;;;1.00;1.00;;;;;;;;5065804;28;8890;-72
2021/10/12 12:16:23;;;;;;;;;1.75;1.75;;;;;;;;5067515;28;8909;-73
2021/10/12 12:18:51;;;;;;;;;0.00;0.00;;;;;;;;5065946;28;8959;-72
2021/10/12 12:21:29;;;;;;;;;1.50;1.50;;;;;;;;5065727;28;8896;-72
2021/10/12 12:23:58;;;;;;;;;2.00;2.00;;;;;;;;5066920;28;8945;-73
2021/10/12 12:26:27;;;;;;;;;3.50;2.00;;;;;;;;5065017;28;9641;-73
2021/10/12 12:28:55;;;;;;;;;1.50;1.00;;;;;;;;5066188;28;8850;-72
2021/10/12 12:31:26;;;;;;;;;3.00;2.00;;;;;;;;5064722;28;8925;-72
2021/10/12 12:33:55;;;;;;;;;2.50;2.50;;;;;;;;5065600;28;8854;-73
2021/10/12 12:36:32;;;;;;;;;2.00;2.00;;;;;;;;5065960;28;8901;-72
2021/10/12 12:39:06;;;;;;;;;3.50;3.50;;;;;;;;5064631;28;8898;-71
2021/10/12 12:41:39;;;;;;;;;2.00;2.00;;;;;;;;5066130;28;8862;-72
2021/10/12 12:44:07;;;;;;;;;1.25;1.25;;;;;;;;5064377;28;10166;-72
2021/10/12 12:46:37;;;;;;;;;3.75;3.00;;;;;;;;5064172;28;8858;-72
2021/10/12 12:49:07;;;;;;;;;2.50;2.00;;;;;;;;5065028;28;8855;-72
2021/10/12 12:51:36;;;;;;;;;2.50;2.50;;;;;;;;5065409;28;8901;-72
2021/10/12 12:54:03;;;;;;;;;2.00;2.00;;;;;;;;5065981;28;8854;-73
2021/10/12 12:56:37;;;;;;;;;5.50;2.00;;;;;;;;5063851;28;8870;-74
2021/10/12 12:59:11;;;;;;;;;1.25;1.25;;;;;;;;5064469;28;8859;-72
2021/10/12 13:01:40;;;;;;;;;4.00;2.00;;;;;;;;5063693;28;8822;-72
2021/10/12 13:04:07;;;;;;;;;4.00;2.00;;;;;;;;5064265;28;8867;-73
2021/10/12 13:06:35;;;;;;;;;2.00;2.00;;;;;;;;5061981;28;8846;-72
2021/10/12 13:09:05;;;;;;;;;2.00;2.00;;;;;;;;5064215;28;8874;-73
2021/10/12 13:11:36;;;;;;;;;4.00;2.75;;;;;;;;5065403;28;8897;-72
2021/10/12 13:14:03;;;;;;;;;3.50;3.50;;;;;;;;5064696;28;8878;-72
2021/10/12 13:16:30;;;;;;;;;3.25;1.75;;;;;;;;5097036;28;8881;-71
2021/10/12 13:18:59;;;;;;;;;1.75;1.75;;;;;;;;5063570;28;9733;-72
2021/10/12 13:21:27;;;;;;;;;1.50;1.00;;;;;;;;5063324;28;9652;-73
2021/10/12 13:23:55;;;;;;;;;2.00;2.00;;;;;;;;5063369;28;8978;-71
2021/10/12 13:26:24;;;;;;;;;2.25;2.00;;;;;;;;5062639;28;8851;-71
2021/10/12 13:28:51;;;;;;;;;2.00;2.00;;;;;;;;5063593;28;8842;-71
2021/10/12 13:31:19;;;;;;;;;3.00;1.25;;;;;;;;5061486;28;9612;-72
2021/10/12 13:33:47;;;;;;;;;3.00;1.75;;;;;;;;5060480;28;8882;-72
2021/10/12 13:36:16;;;;;;;;;3.00;3.00;;;;;;;;5061760;28;8858;-71
2021/10/12 13:38:43;;;;;;;;;1.75;1.75;;;;;;;;5062839;28;8863;-72
2021/10/12 13:41:10;;;;;;;;;1.75;1.75;;;;;;;;5063025;28;8862;-71
2021/10/12 13:43:39;;;;;;;;;2.75;2.75;;;;;;;;5063129;28;8870;-71
2021/10/12 13:46:07;;;;;;;;;2.00;2.00;;;;;;;;5061307;28;9646;-71
2021/10/12 13:48:35;;;;;;;;;2.50;2.50;;;;;;;;5062377;28;8866;-71
2021/10/12 13:51:05;;;;;;;;;2.75;2.75;;;;;;;;5064038;28;8851;-72
2021/10/12 13:53:35;;;;;;;;;3.00;2.00;;;;;;;;5061306;28;8892;-72
2021/10/12 13:56:02;;;;;;;;;4.50;3.00;;;;;;;;5064297;28;8868;-73
2021/10/12 13:58:29;;;;;;;;;2.00;2.00;;;;;;;;5063006;28;9709;-73
2021/10/12 14:00:57;;;;;;;;;4.00;4.00;;;;;;;;5062574;28;9639;-72
2021/10/12 14:03:24;;;;;;;;;3.00;2.50;;;;;;;;5064205;28;8850;-72
2021/10/12 14:05:51;;;;;;;;;2.00;2.00;;;;;;;;5062094;28;8862;-72
2021/10/12 14:08:21;;;;;;;;;1.00;1.00;;;;;;;;5062846;28;8928;-71
2021/10/12 14:10:51;;;;;;;;;2.75;2.75;;;;;;;;5062839;28;8850;-72
2021/10/12 14:13:18;;;;;;;;;2.75;2.75;;;;;;;;5064246;28;8890;-73
2021/10/12 14:15:45;;;;;;;;;3.50;2.00;;;;;;;;5062733;28;8965;-72
2021/10/12 14:18:13;;;;;;;;;2.75;1.75;;;;;;;;5063260;28;8920;-72
2021/10/12 14:20:40;;;;;;;;;2.00;2.00;;;;;;;;5063178;28;8862;-72
2021/10/12 14:23:08;;;;;;;;;2.00;2.00;;;;;;;;5062424;28;8881;-72
2021/10/12 14:25:36;;;;;;;;;2.25;2.25;;;;;;;;5062617;28;10102;-73
2021/10/12 14:28:06;;;;;;;;;1.75;1.75;;;;;;;;5062428;28;8860;-73
2021/10/12 14:30:34;;;;;;;;;3.00;3.00;;;;;;;;5061062;28;8803;-73
2021/10/12 14:33:01;;;;;;;;;2.25;2.25;;;;;;;;5062544;28;8952;-73
2021/10/12 14:35:29;;;;;;;;;1.33;1.33;;;;;;;;5062009;28;8878;-72
2021/10/12 14:37:56;;;;;;;;;1.00;1.00;;;;;;;;5062205;28;8875;-73
2021/10/12 14:40:24;;;;;;;;;2.00;2.00;;;;;;;;5061443;28;8890;-72
2021/10/12 14:42:51;;;;;;;;;4.00;2.50;;;;;;;;5064439;28;8851;-73
2021/10/12 14:45:20;;;;;;;;;1.25;1.25;;;;;;;;5063069;28;8858;-73
2021/10/12 14:47:48;;;;;;;;;1.33;1.00;;;;;;;;5063646;28;9011;-72
2021/10/12 14:50:17;;;;;;;;;1.50;1.50;;;;;;;;5062501;28;8899;-73